Terminal Aerodrome Forecast
Issued by NWS

Home | Current Version | Previous Version | Text Only | Print | Product List | Glossary On
Versions: 1 2 3 4 5 6 7 8 9 10 11 12 13 14 15 16
000
FTAK31 PAJN 272300
TAFAJN
TAF
PAJN 272320Z 2800/2824 24007KT P6SM FEW120
     FM280300 12005KT P6SM SKC
     FM281500 10004KT P6SM SCT090=

USA.gov is the U.S. government's official web portal to all federal, state and local government web resources and services.